Forman, North Dakota
Current Conditions -  °F | °C
As of 8:15 AM on Thursday 29 Jan 2015 (Local Time) from KGWR Reporting Station
Overcast Overcast  
Wind Chill: 16°   Ceiling: 1600
Heat Index: 28°   Visibility: 10mi
Dew Point: 25°   Wind: 18mph
Humidity: 86%   Direction: 350°N
Pressure: 30.37"   Gusts: NA
Location:  46.11°N, 97.64°W
Report Text: KGWR 291415Z AUTO 35016KT 10SM OVC016 M02/M04 A3037 RMK A01 P000
Loading
Personal Weather Stations






























Interactive Weather Map New forecast layout! Learn more

10-Day Weather Forecast

Advertisements
Track Severe Weather on mobile